Haven, Wisconsin
Current Conditions -  °F | °C
As of 1:35 AM on Sunday 23 Nov 2014 (Local Time) from KSBM Reporting Station
Haze Haze  
Wind Chill: 39°   Ceiling: 2200
Heat Index: 44°   Visibility: 3mi
Dew Point: 43°   Wind: 10mph
Humidity: 96%   Direction: 180°S
Pressure: 29.74"   Gusts: NA
Location:  43.8288°N, 87.7756°W
Report Text: KSBM 230735Z AUTO 18009KT 3SM BR FEW002 OVC022 07/06 A2974 RMK AO2 T00670061
Loading
Personal Weather Stations






























Interactive Weather Map New forecast layout! Learn more

10-Day Weather Forecast

Advertisements
Track Severe Weather on mobile